createdAt,value
2023-07-30T00:00:07.964Z,13.82
2023-07-30T00:02:35.037Z,12.55
2023-07-30T00:05:01.990Z,13.63
2023-07-30T00:07:30.338Z,11.00
2023-07-30T00:09:57.228Z,11.63
2023-07-30T00:12:24.181Z,8.75
2023-07-30T00:14:51.085Z,11.68
2023-07-30T00:17:18.031Z,14.60
2023-07-30T00:19:44.979Z,13.40
2023-07-30T00:22:11.898Z,13.38
2023-07-30T00:24:40.158Z,11.45
2023-07-30T00:27:07.654Z,13.88
2023-07-30T00:29:34.530Z,13.25
2023-07-30T00:32:01.623Z,11.45
2023-07-30T00:34:28.608Z,14.68
2023-07-30T00:36:55.599Z,16.00
2023-07-30T00:39:22.791Z,12.90
2023-07-30T00:41:51.131Z,18.50
2023-07-30T00:44:18.486Z,11.90
2023-07-30T00:46:45.503Z,12.70
2023-07-30T00:49:13.069Z,12.88
2023-07-30T00:51:41.960Z,14.48
2023-07-30T00:54:09.051Z,11.55
2023-07-30T00:56:36.123Z,10.73
2023-07-30T00:59:04.641Z,15.07
2023-07-30T01:01:34.980Z,12.70
2023-07-30T01:04:02.712Z,12.30
2023-07-30T01:06:30.159Z,11.77
2023-07-30T01:08:57.168Z,11.13
2023-07-30T01:11:24.326Z,15.45
2023-07-30T01:13:51.620Z,10.32
2023-07-30T01:16:20.178Z,13.77
2023-07-30T01:18:47.192Z,11.02
2023-07-30T01:21:15.470Z,9.65
2023-07-30T01:23:42.348Z,9.75
2023-07-30T01:26:13.889Z,13.68
2023-07-30T01:28:46.460Z,15.57
2023-07-30T01:31:17.308Z,12.95
2023-07-30T01:33:48.953Z,15.02
2023-07-30T01:36:18.129Z,11.60
2023-07-30T01:38:45.894Z,12.68
2023-07-30T01:41:13.098Z,12.30
2023-07-30T01:43:40.147Z,14.10
2023-07-30T01:46:07.082Z,13.95
2023-07-30T01:48:34.063Z,17.63
2023-07-30T01:51:01.001Z,13.90
2023-07-30T01:53:29.280Z,17.75
2023-07-30T01:55:56.188Z,10.32
2023-07-30T01:58:23.137Z,12.85
2023-07-30T02:00:50.041Z,12.57
2023-07-30T02:03:16.993Z,14.15
2023-07-30T02:05:43.950Z,12.07
2023-07-30T02:08:10.924Z,15.88
2023-07-30T02:10:39.173Z,16.20
2023-07-30T02:13:06.132Z,11.98
2023-07-30T02:15:33.061Z,15.38
2023-07-30T02:18:00.068Z,17.65
2023-07-30T02:20:27.043Z,10.18
2023-07-30T02:22:54.025Z,8.93
2023-07-30T02:25:20.965Z,20.98
2023-07-30T02:27:49.258Z,16.85
2023-07-30T02:30:16.202Z,12.15
2023-07-30T02:32:43.184Z,14.35
2023-07-30T02:35:10.276Z,14.88
2023-07-30T02:37:37.265Z,14.68
2023-07-30T02:40:04.916Z,16.73
2023-07-30T02:42:31.937Z,16.88
2023-07-30T02:45:00.331Z,14.15
2023-07-30T02:47:27.420Z,16.15
2023-07-30T02:49:54.611Z,13.82
2023-07-30T02:52:21.727Z,19.40
2023-07-30T02:54:48.731Z,14.00
2023-07-30T02:57:15.660Z,17.65
2023-07-30T02:59:42.602Z,16.10
2023-07-30T03:02:10.965Z,12.45
2023-07-30T03:04:37.991Z,11.90
2023-07-30T03:07:05.696Z,12.70
2023-07-30T03:09:32.667Z,13.13
2023-07-30T03:12:00.609Z,15.25
2023-07-30T03:14:27.563Z,10.32
2023-07-30T03:16:54.600Z,15.38
2023-07-30T03:19:23.033Z,15.45
2023-07-30T03:21:49.972Z,12.95
2023-07-30T03:24:17.123Z,13.55
2023-07-30T03:26:44.059Z,12.07
2023-07-30T03:29:11.093Z,12.07
2023-07-30T03:31:38.300Z,15.48
2023-07-30T03:34:05.380Z,14.90
2023-07-30T03:36:33.795Z,11.90
2023-07-30T03:39:00.738Z,15.80
2023-07-30T03:41:27.694Z,15.93
2023-07-30T03:43:54.758Z,13.70
2023-07-30T03:46:21.833Z,21.70
2023-07-30T03:48:48.799Z,12.95
2023-07-30T03:51:15.825Z,13.60
2023-07-30T03:53:44.182Z,17.48
2023-07-30T03:56:11.173Z,12.52
2023-07-30T03:58:38.234Z,12.70
2023-07-30T04:01:05.233Z,14.32
2023-07-30T04:03:32.358Z,12.60
2023-07-30T04:05:59.416Z,15.60
2023-07-30T04:08:26.403Z,15.23
2023-07-30T04:10:54.683Z,14.27
2023-07-30T04:13:21.662Z,16.02
2023-07-30T04:15:49.121Z,17.27
2023-07-30T04:18:16.079Z,11.70
2023-07-30T04:20:43.040Z,15.23
2023-07-30T04:23:09.951Z,18.13
2023-07-30T04:25:36.894Z,12.15
2023-07-30T04:28:05.353Z,17.70
2023-07-30T04:30:33.086Z,15.52
2023-07-30T04:33:00.202Z,14.65
2023-07-30T04:35:27.160Z,17.80
2023-07-30T04:37:54.103Z,14.73
2023-07-30T04:40:21.055Z,19.83
2023-07-30T04:42:48.009Z,13.88
2023-07-30T04:45:16.526Z,22.10
2023-07-30T04:47:43.785Z,18.42
2023-07-30T04:50:11.278Z,16.25
2023-07-30T04:52:39.605Z,17.70
2023-07-30T04:55:07.806Z,23.85
2023-07-30T04:57:34.807Z,14.20
2023-07-30T05:00:01.779Z,13.55
2023-07-30T05:02:30.874Z,17.67
2023-07-30T05:04:57.838Z,14.70
2023-07-30T05:07:24.781Z,16.73
2023-07-30T05:09:51.790Z,13.35
2023-07-30T05:12:18.788Z,18.70
2023-07-30T05:14:45.683Z,13.63
2023-07-30T05:17:12.632Z,18.10
2023-07-30T05:19:41.023Z,20.02
2023-07-30T05:22:07.975Z,19.05
2023-07-30T05:24:34.977Z,15.30
2023-07-30T05:27:01.968Z,16.77
2023-07-30T05:29:28.988Z,13.32
2023-07-30T05:31:55.914Z,12.68
2023-07-30T05:34:22.905Z,14.35
2023-07-30T05:36:51.166Z,15.90
2023-07-30T05:39:18.176Z,13.63
2023-07-30T05:41:45.217Z,12.80
2023-07-30T05:44:12.174Z,14.18
2023-07-30T05:46:39.113Z,12.95
2023-07-30T05:49:06.062Z,20.45
2023-07-30T05:51:33.023Z,15.32
2023-07-30T05:54:01.369Z,17.58
2023-07-30T05:56:28.414Z,15.38
2023-07-30T05:58:55.362Z,14.77
2023-07-30T06:01:22.333Z,16.63
2023-07-30T06:03:49.440Z,17.77
2023-07-30T06:06:16.370Z,17.08
2023-07-30T06:08:43.314Z,17.10
2023-07-30T06:11:11.650Z,20.23
2023-07-30T06:13:38.553Z,15.23
2023-07-30T06:16:05.611Z,20.55
2023-07-30T06:18:32.688Z,22.98
2023-07-30T06:20:59.612Z,19.67
2023-07-30T06:23:26.543Z,20.48
2023-07-30T06:25:53.467Z,16.35
2023-07-30T06:28:21.873Z,16.33
2023-07-30T06:30:48.850Z,17.27
2023-07-30T06:33:15.791Z,15.43
2023-07-30T06:35:42.764Z,17.95
2023-07-30T06:38:10.217Z,15.68
2023-07-30T06:40:37.116Z,20.95
2023-07-30T06:43:04.130Z,20.35
2023-07-30T06:45:32.548Z,20.83
2023-07-30T06:47:59.558Z,16.85
2023-07-30T06:50:26.629Z,14.02
2023-07-30T06:52:53.802Z,15.95
2023-07-30T06:55:20.710Z,15.75
2023-07-30T06:57:47.680Z,18.70
2023-07-30T07:00:15.533Z,13.98
2023-07-30T07:02:43.861Z,15.05
2023-07-30T07:05:10.857Z,13.13
2023-07-30T07:07:37.835Z,14.98
2023-07-30T07:10:05.536Z,16.70
2023-07-30T07:12:32.424Z,11.60
2023-07-30T07:14:59.516Z,14.57
2023-07-30T07:17:26.670Z,13.52
2023-07-30T07:19:55.022Z,13.73
2023-07-30T07:22:22.043Z,14.73
2023-07-30T07:24:48.982Z,16.10
2023-07-30T07:27:15.935Z,16.77
2023-07-30T07:29:42.963Z,14.73
2023-07-30T07:32:09.927Z,14.45
2023-07-30T07:34:37.102Z,15.25
2023-07-30T07:37:05.897Z,16.23
2023-07-30T07:39:34.219Z,15.27
2023-07-30T07:42:01.223Z,13.95
2023-07-30T07:44:28.128Z,13.27
2023-07-30T07:46:55.091Z,15.13
2023-07-30T07:49:22.177Z,15.10
2023-07-30T07:51:49.132Z,20.83
2023-07-30T07:54:17.530Z,16.25
2023-07-30T07:56:44.484Z,13.45
2023-07-30T07:59:11.459Z,15.88
2023-07-30T08:01:38.734Z,13.75
2023-07-30T08:04:06.039Z,17.45
2023-07-30T08:06:33.136Z,12.18
2023-07-30T08:09:00.081Z,13.13
2023-07-30T08:11:28.446Z,11.77
2023-07-30T08:13:55.353Z,12.02
2023-07-30T08:16:22.622Z,12.35
2023-07-30T08:18:49.641Z,11.45
2023-07-30T08:21:16.620Z,12.38
2023-07-30T08:23:43.552Z,15.20
2023-07-30T08:26:10.546Z,13.07
2023-07-30T08:28:38.856Z,16.70
2023-07-30T08:31:06.899Z,9.00
2023-07-30T08:33:33.849Z,14.55
2023-07-30T08:36:00.934Z,11.82
2023-07-30T08:38:29.288Z,11.43
2023-07-30T08:40:56.232Z,11.77
2023-07-30T08:43:23.222Z,11.95
2023-07-30T08:45:51.600Z,13.45
2023-07-30T08:48:18.563Z,11.77
2023-07-30T08:50:46.762Z,7.75
2023-07-30T08:53:14.205Z,11.15
2023-07-30T08:55:42.605Z,14.77
2023-07-30T08:58:11.582Z,12.57
2023-07-30T09:00:40.902Z,10.43
2023-07-30T09:03:10.833Z,10.85
2023-07-30T09:05:39.077Z,9.18
2023-07-30T09:08:07.245Z,12.13
2023-07-30T09:10:35.775Z,11.38
2023-07-30T09:13:05.274Z,10.38
2023-07-30T09:15:32.956Z,10.38
2023-07-30T09:18:00.096Z,15.57
2023-07-30T09:20:28.983Z,10.45
2023-07-30T09:22:58.223Z,10.32
2023-07-30T09:25:25.174Z,19.35
2023-07-30T09:27:52.896Z,9.25
2023-07-30T09:30:24.265Z,7.72
2023-07-30T09:32:53.673Z,7.15
2023-07-30T09:35:20.797Z,7.60
2023-07-30T09:37:49.330Z,7.43
2023-07-30T09:40:17.648Z,11.27
2023-07-30T09:42:46.578Z,10.93
2023-07-30T09:45:18.875Z,6.40
2023-07-30T09:47:48.360Z,8.48
2023-07-30T09:50:15.759Z,9.48
2023-07-30T09:52:43.284Z,10.55
2023-07-30T09:55:11.971Z,7.50
2023-07-30T09:57:39.317Z,8.18
2023-07-30T10:00:07.898Z,9.07
2023-07-30T10:02:38.744Z,7.78
2023-07-30T10:05:11.566Z,8.07
2023-07-30T10:07:41.785Z,10.57
2023-07-30T10:10:11.770Z,11.27
2023-07-30T10:12:39.954Z,11.60
2023-07-30T10:15:08.356Z,10.82
2023-07-30T10:17:35.542Z,6.40
2023-07-30T10:20:24.346Z,12.63
2023-07-30T10:22:55.010Z,5.60
2023-07-30T10:25:27.296Z,11.55
2023-07-30T10:27:54.217Z,10.48
2023-07-30T10:30:22.179Z,9.27
2023-07-30T10:33:05.559Z,9.73
2023-07-30T10:35:43.980Z,7.93
2023-07-30T10:38:15.882Z,9.30
2023-07-30T10:41:01.343Z,9.63
2023-07-30T10:43:29.555Z,7.07
2023-07-30T10:45:58.036Z,11.45
2023-07-30T10:48:32.428Z,8.93
2023-07-30T10:50:59.954Z,7.97
2023-07-30T10:53:27.188Z,8.20
2023-07-30T10:55:55.842Z,7.55
2023-07-30T10:58:25.251Z,9.38
2023-07-30T11:00:52.317Z,8.95
2023-07-30T11:03:19.369Z,10.25
2023-07-30T11:05:48.101Z,7.03
2023-07-30T11:08:15.227Z,6.20
2023-07-30T11:10:46.559Z,7.30
2023-07-30T11:13:15.322Z,6.38
2023-07-30T11:15:42.944Z,5.50
2023-07-30T11:18:09.988Z,7.60
2023-07-30T11:20:36.974Z,5.03
2023-07-30T11:23:04.133Z,3.38
2023-07-30T11:25:31.079Z,10.82
2023-07-30T11:27:58.075Z,4.30
2023-07-30T11:30:26.495Z,5.78
2023-07-30T11:32:53.459Z,6.72
2023-07-30T11:35:20.587Z,5.40
2023-07-30T11:37:47.670Z,5.22
2023-07-30T11:40:14.912Z,2.88
2023-07-30T11:42:43.098Z,4.53
2023-07-30T11:45:23.764Z,5.80
2023-07-30T11:47:52.093Z,3.33
2023-07-30T11:50:19.186Z,6.15
2023-07-30T11:52:56.520Z,6.03
2023-07-30T11:55:24.569Z,6.93
2023-07-30T11:57:52.341Z,5.78
2023-07-30T12:00:25.955Z,8.02
2023-07-30T12:02:54.344Z,6.22
2023-07-30T12:05:33.954Z,11.52
2023-07-30T12:08:01.174Z,9.77
2023-07-30T12:10:28.065Z,6.55
2023-07-30T12:12:55.048Z,3.53
2023-07-30T12:15:22.033Z,7.65
2023-07-30T12:17:49.021Z,7.18
2023-07-30T12:20:17.375Z,7.63
2023-07-30T12:22:44.318Z,7.88
2023-07-30T12:25:11.371Z,5.90
2023-07-30T12:27:38.361Z,7.70
2023-07-30T12:30:06.705Z,7.50
2023-07-30T12:32:33.608Z,4.25
2023-07-30T12:35:00.531Z,6.47
2023-07-30T12:37:28.883Z,6.05
2023-07-30T12:39:55.775Z,4.50
2023-07-30T12:42:22.715Z,5.82
2023-07-30T12:44:49.670Z,5.65
2023-07-30T12:47:16.812Z,7.78
2023-07-30T12:49:44.063Z,5.47
2023-07-30T12:52:11.037Z,4.25
2023-07-30T12:54:39.290Z,5.63
2023-07-30T12:57:06.998Z,5.97
2023-07-30T12:59:33.941Z,3.45
2023-07-30T13:02:00.981Z,5.70
2023-07-30T13:04:28.028Z,4.18
2023-07-30T13:06:54.958Z,4.18
2023-07-30T13:09:21.920Z,4.07
2023-07-30T13:11:50.191Z,8.82
2023-07-30T13:14:17.353Z,7.00
2023-07-30T13:16:44.284Z,6.68
2023-07-30T13:19:11.188Z,6.50
2023-07-30T13:21:38.814Z,5.82
2023-07-30T13:24:06.174Z,3.92
2023-07-30T13:26:33.057Z,6.68
2023-07-30T13:29:01.349Z,5.88
2023-07-30T13:31:28.601Z,4.60
2023-07-30T13:33:55.521Z,4.80
2023-07-30T13:36:22.454Z,6.07
2023-07-30T13:38:49.429Z,3.72
2023-07-30T13:41:16.326Z,4.63
2023-07-30T13:43:43.369Z,6.88
2023-07-30T13:46:11.641Z,7.43
2023-07-30T13:48:38.664Z,6.47
2023-07-30T13:51:05.618Z,5.53
2023-07-30T13:53:32.494Z,5.50
2023-07-30T13:55:59.447Z,5.63
2023-07-30T13:58:26.399Z,8.88
2023-07-30T14:00:55.181Z,5.20
2023-07-30T14:03:23.635Z,7.63
2023-07-30T14:05:50.748Z,9.55
2023-07-30T14:08:17.644Z,7.57
2023-07-30T14:10:45.257Z,10.02
2023-07-30T14:13:12.720Z,7.32
2023-07-30T14:15:39.622Z,8.18
2023-07-30T14:18:06.643Z,6.10
2023-07-30T14:20:35.014Z,6.13
2023-07-30T14:23:01.944Z,9.38
2023-07-30T14:25:28.862Z,6.93
2023-07-30T14:27:55.752Z,7.10
2023-07-30T14:30:22.894Z,4.63
2023-07-30T14:32:49.893Z,7.60
2023-07-30T14:35:17.061Z,8.23
2023-07-30T14:37:45.371Z,8.48
2023-07-30T14:40:12.859Z,6.85
2023-07-30T14:42:39.781Z,10.48
2023-07-30T14:45:08.220Z,10.48
2023-07-30T14:47:35.193Z,6.82
2023-07-30T14:50:02.285Z,7.32
2023-07-30T14:52:29.209Z,8.73
2023-07-30T14:54:57.598Z,9.13
2023-07-30T14:57:24.540Z,8.40
2023-07-30T14:59:51.413Z,7.18
2023-07-30T15:02:18.339Z,8.20
2023-07-30T15:04:45.296Z,9.23
2023-07-30T15:07:12.281Z,8.63
2023-07-30T15:09:39.412Z,11.63
2023-07-30T15:12:07.981Z,9.70
2023-07-30T15:14:35.089Z,11.55
2023-07-30T15:17:02.124Z,9.02
2023-07-30T15:19:32.080Z,9.02
2023-07-30T15:21:59.150Z,9.75
2023-07-30T15:24:26.072Z,10.45
2023-07-30T15:26:56.118Z,9.07
2023-07-30T15:29:24.612Z,6.55
2023-07-30T15:31:52.072Z,6.30
2023-07-30T15:34:19.185Z,8.90
2023-07-30T15:36:46.218Z,9.95
2023-07-30T15:39:13.181Z,7.13
2023-07-30T15:41:40.084Z,4.95
2023-07-30T15:44:07.057Z,5.32
2023-07-30T15:46:35.370Z,7.38
2023-07-30T15:49:02.248Z,6.03
2023-07-30T15:51:29.560Z,7.40
2023-07-30T15:53:56.499Z,7.50
2023-07-30T15:56:23.389Z,6.28
2023-07-30T15:58:50.278Z,8.40
2023-07-30T16:01:17.289Z,5.72
2023-07-30T16:03:45.572Z,7.30
2023-07-30T16:06:12.533Z,7.75
2023-07-30T16:08:40.564Z,12.32
2023-07-30T16:11:09.575Z,8.82
2023-07-30T16:13:36.967Z,8.10
2023-07-30T16:16:10.562Z,8.75
2023-07-30T16:18:37.583Z,9.68
2023-07-30T16:21:06.723Z,13.68
2023-07-30T16:23:33.680Z,9.35
2023-07-30T16:26:00.739Z,10.40
2023-07-30T16:28:27.732Z,9.45
2023-07-30T16:30:54.809Z,11.70
2023-07-30T16:33:22.053Z,10.68
2023-07-30T16:35:49.442Z,7.60
2023-07-30T16:38:18.216Z,9.75
2023-07-30T16:40:45.102Z,8.63
2023-07-30T16:43:12.299Z,10.23
2023-07-30T16:45:39.247Z,14.77
2023-07-30T16:48:06.240Z,11.30
2023-07-30T16:50:34.598Z,10.57
2023-07-30T16:53:01.542Z,11.80
2023-07-30T16:55:32.783Z,14.18
2023-07-30T16:57:59.698Z,11.40
2023-07-30T17:00:26.643Z,11.25
2023-07-30T17:02:53.675Z,13.27
2023-07-30T17:05:20.823Z,14.52
2023-07-30T17:07:47.749Z,13.18
2023-07-30T17:10:14.738Z,12.90
2023-07-30T17:12:43.016Z,16.58
2023-07-30T17:15:11.367Z,14.70
2023-07-30T17:17:38.399Z,11.35
2023-07-30T17:20:07.075Z,12.20
2023-07-30T17:22:34.122Z,10.18
2023-07-30T17:25:01.653Z,13.63
2023-07-30T17:27:28.568Z,12.02
2023-07-30T17:29:58.082Z,15.25
2023-07-30T17:32:25.339Z,13.98
2023-07-30T17:34:52.397Z,11.25
2023-07-30T17:37:19.478Z,11.38
2023-07-30T17:39:46.422Z,10.73
2023-07-30T17:42:13.448Z,10.73
2023-07-30T17:44:40.468Z,11.10
2023-07-30T17:47:08.730Z,14.23
2023-07-30T17:49:35.619Z,12.18
2023-07-30T17:52:02.591Z,10.48
2023-07-30T17:54:29.654Z,10.77
2023-07-30T17:56:56.956Z,12.73
2023-07-30T17:59:24.137Z,11.93
2023-07-30T18:01:51.243Z,11.63
2023-07-30T18:04:19.864Z,9.88
2023-07-30T18:06:46.872Z,9.70
2023-07-30T18:09:13.915Z,11.10
2023-07-30T18:11:40.969Z,13.27
2023-07-30T18:14:07.991Z,9.75
2023-07-30T18:16:35.035Z,9.68
2023-07-30T18:19:02.285Z,12.40
2023-07-30T18:21:30.637Z,15.43
2023-07-30T18:23:57.720Z,12.25
2023-07-30T18:26:24.838Z,12.25
2023-07-30T18:28:51.881Z,10.18
2023-07-30T18:31:18.998Z,13.60
2023-07-30T18:33:46.029Z,11.68
2023-07-30T18:36:13.008Z,9.30
2023-07-30T18:38:41.371Z,11.38
2023-07-30T18:41:08.375Z,11.93
2023-07-30T18:43:35.413Z,9.35
2023-07-30T18:46:03.387Z,13.70
2023-07-30T18:48:30.547Z,10.40
2023-07-30T18:50:57.509Z,11.02
2023-07-30T18:53:24.458Z,11.93
2023-07-30T18:55:53.038Z,10.93
2023-07-30T18:58:19.996Z,13.05
2023-07-30T19:00:47.750Z,10.25
2023-07-30T19:03:14.830Z,12.93
2023-07-30T19:05:41.783Z,12.05
2023-07-30T19:08:08.746Z,9.25
2023-07-30T19:10:35.667Z,10.63
2023-07-30T19:13:03.928Z,12.40
2023-07-30T19:15:30.902Z,12.15
2023-07-30T19:17:57.890Z,12.10
2023-07-30T19:20:24.840Z,12.65
2023-07-30T19:22:51.877Z,13.98
2023-07-30T19:25:18.817Z,16.23
2023-07-30T19:27:45.700Z,14.98
2023-07-30T19:30:14.345Z,15.40
2023-07-30T19:32:41.284Z,10.20
2023-07-30T19:35:08.974Z,11.25
2023-07-30T19:37:36.129Z,13.40
2023-07-30T19:40:03.200Z,13.48
2023-07-30T19:42:30.164Z,13.05
2023-07-30T19:44:58.136Z,11.73
2023-07-30T19:47:26.863Z,13.57
2023-07-30T19:49:54.321Z,11.13
2023-07-30T19:52:21.783Z,13.13
2023-07-30T19:54:48.705Z,17.15
2023-07-30T19:57:15.621Z,11.23
2023-07-30T19:59:42.524Z,11.48
2023-07-30T20:02:09.469Z,12.80
2023-07-30T20:04:39.173Z,13.90
2023-07-30T20:07:06.879Z,13.88
2023-07-30T20:09:33.895Z,16.77
2023-07-30T20:12:00.808Z,13.07
2023-07-30T20:14:28.317Z,13.32
2023-07-30T20:16:55.229Z,8.70
2023-07-30T20:19:22.184Z,13.07
2023-07-30T20:21:50.463Z,15.00
2023-07-30T20:24:18.770Z,14.40
2023-07-30T20:26:45.698Z,12.73
2023-07-30T20:29:12.641Z,15.70
2023-07-30T20:31:39.576Z,13.50
2023-07-30T20:34:06.843Z,14.40
2023-07-30T20:36:33.970Z,16.23
2023-07-30T20:39:02.229Z,13.48
2023-07-30T20:41:29.129Z,13.10
2023-07-30T20:43:56.120Z,14.52
2023-07-30T20:46:23.236Z,14.23
2023-07-30T20:48:50.276Z,15.60
2023-07-30T20:51:17.257Z,10.38
2023-07-30T20:53:45.066Z,15.43
2023-07-30T20:56:13.362Z,15.93
2023-07-30T20:58:40.800Z,16.13
2023-07-30T21:01:07.785Z,16.58
2023-07-30T21:03:34.770Z,17.10
2023-07-30T21:06:01.834Z,13.88
2023-07-30T21:08:28.839Z,13.93
2023-07-30T21:10:55.808Z,14.73
2023-07-30T21:13:24.605Z,15.27
2023-07-30T21:15:51.667Z,16.02
2023-07-30T21:18:18.617Z,14.63
2023-07-30T21:20:46.528Z,13.52
2023-07-30T21:23:13.533Z,18.25
2023-07-30T21:25:41.048Z,16.50
2023-07-30T21:28:08.019Z,16.67
2023-07-30T21:30:36.377Z,19.05
2023-07-30T21:33:03.551Z,18.42
2023-07-30T21:35:30.715Z,15.55
2023-07-30T21:37:57.703Z,14.45
2023-07-30T21:40:24.599Z,15.13
2023-07-30T21:42:51.549Z,15.88
2023-07-30T21:45:18.508Z,15.52
2023-07-30T21:47:46.928Z,14.15
2023-07-30T21:50:13.883Z,18.40
2023-07-30T21:52:40.823Z,14.93
2023-07-30T21:55:08.566Z,21.00
2023-07-30T21:57:35.545Z,16.98
2023-07-30T22:00:02.674Z,13.15
2023-07-30T22:02:29.708Z,15.13
2023-07-30T22:04:58.049Z,17.20
2023-07-30T22:07:25.061Z,14.07
2023-07-30T22:09:52.052Z,14.00
2023-07-30T22:12:18.941Z,13.52
2023-07-30T22:14:45.897Z,17.27
2023-07-30T22:17:12.925Z,12.88
2023-07-30T22:19:40.122Z,14.15
2023-07-30T22:22:08.383Z,12.00
2023-07-30T22:24:35.297Z,13.18
2023-07-30T22:27:02.193Z,12.60
2023-07-30T22:29:29.144Z,17.77
2023-07-30T22:31:56.208Z,15.60
2023-07-30T22:34:23.259Z,14.77
2023-07-30T22:36:50.253Z,17.02
2023-07-30T22:39:18.587Z,15.20
2023-07-30T22:41:45.536Z,15.77
2023-07-30T22:44:12.495Z,16.02
2023-07-30T22:46:39.822Z,14.20
2023-07-30T22:49:07.283Z,17.27
2023-07-30T22:51:34.214Z,16.92
2023-07-30T22:54:01.171Z,17.65
2023-07-30T22:56:29.447Z,19.67
2023-07-30T22:58:56.575Z,16.80
2023-07-30T23:01:23.679Z,18.42
2023-07-30T23:03:50.842Z,18.73
2023-07-30T23:06:17.800Z,17.10
2023-07-30T23:08:44.815Z,16.88
2023-07-30T23:11:11.833Z,20.08
2023-07-30T23:13:40.101Z,17.77
2023-07-30T23:16:07.116Z,20.38
2023-07-30T23:18:34.114Z,13.68
2023-07-30T23:21:01.136Z,18.85
2023-07-30T23:23:29.417Z,16.65
2023-07-30T23:25:56.343Z,19.20
2023-07-30T23:28:23.440Z,17.52
2023-07-30T23:30:51.841Z,20.27
2023-07-30T23:33:18.739Z,15.70
2023-07-30T23:35:45.705Z,17.92
2023-07-30T23:38:12.681Z,18.45
2023-07-30T23:40:40.608Z,17.45
2023-07-30T23:43:07.513Z,17.80
2023-07-30T23:45:34.906Z,15.13
2023-07-30T23:48:03.479Z,16.00
2023-07-30T23:50:31.018Z,17.77
2023-07-30T23:52:58.077Z,16.55
2023-07-30T23:55:25.001Z,12.30
2023-07-30T23:57:51.969Z,17.02
